Nearby METAR Reports

 

KBAX - Bad Axe, Michigan, USA
Distance from station: ESE 22mi, 35km
Updated: Wed, 20-Mar-2019 10:15am EDT
Partly cloudy
Partly cloudy
 Wind from S
Wind: S 12 mph , 19 km/h
Temperature: 39°F , 4°C
Wind Chill: 32°F , 0°C
Dew Point: 28°F , -2°C
Humidity: 65%
Barometer: 30.11 inHg , 1019.6 hPa
Clouds: Partly cloudy
Visibility: 10 miles , 16 km
Cloud details: Partly cloudy 6000 ft
2019/03/20 14:15 KBAX 201415Z AUTO 19010KT 10SM SCT060 04/M02 A3011 RMK AO2 T00441018
KFNT - Flint, Michigan, USA
Distance from station: SSW 68mi, 109km
Updated: Wed, 20-Mar-2019 9:53am EDT
Overcast
Overcast
 Wind from S
Wind: S 9 mph , 15 km/h
Temperature: 39°F , 4°C
Wind Chill: 33°F , 1°C
Dew Point: 27°F , -3°C
Humidity: 61%
Barometer: 30.13 inHg , 1020.3 hPa
Clouds: Overcast
Visibility: 10 miles , 16 km
Cloud details: Overcast 6000 ft
2019/03/20 13:53 KFNT 201353Z 19008KT 10SM OVC060 04/M03 A3013 RMK AO2 SLP210 T00441033
KMBS - Saginaw, Michigan, USA
Distance from station: SW 44mi, 70km
Updated: Wed, 20-Mar-2019 9:53am EDT
Clear
Clear
 Wind from SSW
Wind: SSW 15 mph , 24 km/h
Temperature: 39°F , 4°C
Wind Chill: 31°F , -1°C
Dew Point: 27°F , -3°C
Humidity: 61%
Barometer: 30.09 inHg , 1019 hPa
Clouds: Clear
Visibility: 10 miles , 16 km
2019/03/20 13:53 KMBS 201353Z 20013KT 10SM CLR 04/M03 A3009 RMK AO2 SLP196 T00441028
 
KDTW - Detroit/Wayne, Michigan, USA
Distance from station: SSE 117mi, 188km
Updated: Wed, 20-Mar-2019 9:53am EDT
Mostly cloudy
Mostly cloudy
 Wind from S
Wind: S 10 mph , 17 km/h
Temperature: 39°F , 4°C
Wind Chill: 32°F , 0°C
Dew Point: 27°F , -3°C
Humidity: 61%
Barometer: 30.19 inHg , 1022.4 hPa
Clouds: Mostly cloudy
Visibility: 9 miles , 14 km
Cloud details: Few Clouds 9500 ft
Few Clouds 11000 ft
Mostly cloudy 18000 ft
2019/03/20 13:53 KDTW 201353Z 19009KT 9SM FEW095 FEW110 BKN180 04/M03 A3019 RMK AO2 SLP227 T00441033
KP58 - Port Hope, Michigan, USA
Distance from station: ENE 30mi, 48km
Updated: Wed, 20-Mar-2019 9:51am EDT

 Wind from S
Wind: S 8 mph , 13 km/h
Temperature: 39°F , 4°C
Wind Chill: 33°F , 1°C
Dew Point: 27°F , -3°C
Humidity: 61%
Barometer: 30.10 inHg , 1019.3 hPa
2019/03/20 13:51 KP58 201351Z AUTO 18007KT 150V220 04/M03 A3010 RMK AO1 SLP200 T00441028
KCFS - Caro/Tuscola, Michigan, USA
Distance from station: S 31mi, 50km
Updated: Wed, 20-Mar-2019 9:55am EDT
Partly cloudy
Partly cloudy
 Wind from S
Wind: S 13 mph , 20 km/h, Gust: 22 mph , 35 km/h
Temperature: 41°F , 5°C
Wind Chill: 34°F , 1°C
Dew Point: 28°F , -2°C
Humidity: 61%
Barometer: 30.11 inHg , 1019.6 hPa
Clouds: Partly cloudy
Visibility: 10 miles , 16 km
Cloud details: Partly cloudy 6000 ft
2019/03/20 13:55 KCFS 201355Z AUTO 19011G19KT 10SM SCT060 05/M02 A3011 RMK AO2 T00471021
 
KPHN - Port Huron, Michigan, USA
Distance from station: SSE 81mi, 131km
Updated: Wed, 20-Mar-2019 10:15am EDT
Mostly cloudy
Mostly cloudy
 Wind from SSW
Wind: SSW 10 mph , 17 km/h
Temperature: 41°F , 5°C
Wind Chill: 35°F , 2°C
Dew Point: 30°F , -1°C
Humidity: 66%
Barometer: 30.18 inHg , 1022 hPa
Clouds: Mostly cloudy
Visibility: 10 miles , 16 km
Cloud details: Mostly cloudy 5500 ft
2019/03/20 14:15 KPHN 201415Z AUTO 20009KT 10SM BKN055 05/M01 A3018 RMK AO2
KPTK - Pontiac, Michigan, USA
Distance from station: S 86mi, 138km
Updated: Wed, 20-Mar-2019 9:53am EDT
Mostly cloudy
Mostly cloudy
 Wind from S
Wind: S 9 mph , 15 km/h
Temperature: 37°F , 3°C
Wind Chill: 30°F , -1°C
Dew Point: 25°F , -4°C
Humidity: 60%
Barometer: 30.14 inHg , 1020.7 hPa
Clouds: Mostly cloudy
Visibility: 10 miles , 16 km
Cloud details: Partly cloudy 5500 ft
Partly cloudy 13000 ft
Mostly cloudy 25000 ft
2019/03/20 13:53 KPTK 201353Z 19008KT 10SM SCT055 SCT130 BKN250 03/M04 A3014 RMK AO2 SLP214 T00331039
KMTC - Selfridge Angb, Michigan, USA
Distance from station: SSE 94mi, 151km
Updated: Wed, 20-Mar-2019 9:56am EDT
Mostly cloudy
Mostly cloudy
 Wind from S
Wind: S 9 mph , 15 km/h
Temperature: 37°F , 3°C
Wind Chill: 30°F , -1°C
Dew Point: 34°F , 1°C
Humidity: 87%
Barometer: 30.17 inHg , 1021.7 hPa
Clouds: Mostly cloudy
Visibility: 10 miles , 16 km
Cloud details: Partly cloudy 6000 ft
Mostly cloudy 14000 ft
Mostly cloudy 23000 ft
2019/03/20 13:56 KMTC 201356Z 17008KT 10SM SCT060 BKN140 BKN230 03/01 A3017 RMK AO2A SLP226 T00300010 $